sensor_id;sensor_type;location;lat;lon;timestamp;P1;durP1;ratioP1;P2;durP2;ratioP2
3916;SDS011;1973;50.518;7.318;2023-06-14T00:02:21;6.23;;;5.70;;
3916;SDS011;1973;50.518;7.318;2023-06-14T00:04:48;6.87;;;5.80;;
3916;SDS011;1973;50.518;7.318;2023-06-14T00:07:17;7.20;;;5.70;;
3916;SDS011;1973;50.518;7.318;2023-06-14T00:09:45;6.40;;;5.53;;
3916;SDS011;1973;50.518;7.318;2023-06-14T00:12:11;6.37;;;5.77;;
3916;SDS011;1973;50.518;7.318;2023-06-14T00:14:38;6.50;;;5.70;;
3916;SDS011;1973;50.518;7.318;2023-06-14T00:17:05;6.57;;;5.97;;
3916;SDS011;1973;50.518;7.318;2023-06-14T00:19:33;6.57;;;5.97;;
3916;SDS011;1973;50.518;7.318;2023-06-14T00:22:02;7.60;;;6.30;;
3916;SDS011;1973;50.518;7.318;2023-06-14T00:24:29;7.27;;;6.60;;
3916;SDS011;1973;50.518;7.318;2023-06-14T00:26:56;7.00;;;6.40;;
3916;SDS011;1973;50.518;7.318;2023-06-14T00:29:23;7.00;;;6.40;;
3916;SDS011;1973;50.518;7.318;2023-06-14T00:31:49;7.97;;;6.30;;
3916;SDS011;1973;50.518;7.318;2023-06-14T00:34:16;6.40;;;5.80;;
3916;SDS011;1973;50.518;7.318;2023-06-14T00:36:43;7.97;;;6.67;;
3916;SDS011;1973;50.518;7.318;2023-06-14T00:39:09;7.03;;;6.10;;
3916;SDS011;1973;50.518;7.318;2023-06-14T00:41:36;8.20;;;6.20;;
3916;SDS011;1973;50.518;7.318;2023-06-14T00:44:02;6.47;;;5.83;;
3916;SDS011;1973;50.518;7.318;2023-06-14T00:46:29;7.00;;;6.20;;
3916;SDS011;1973;50.518;7.318;2023-06-14T00:48:56;6.80;;;6.10;;
3916;SDS011;1973;50.518;7.318;2023-06-14T00:51:23;7.53;;;6.93;;
3916;SDS011;1973;50.518;7.318;2023-06-14T00:53:50;7.20;;;5.97;;
3916;SDS011;1973;50.518;7.318;2023-06-14T00:56:17;7.20;;;6.53;;
3916;SDS011;1973;50.518;7.318;2023-06-14T00:58:47;7.20;;;6.60;;
3916;SDS011;1973;50.518;7.318;2023-06-14T01:01:13;7.87;;;6.87;;
3916;SDS011;1973;50.518;7.318;2023-06-14T01:03:40;6.37;;;5.77;;
3916;SDS011;1973;50.518;7.318;2023-06-14T01:06:14;7.83;;;6.33;;
3916;SDS011;1973;50.518;7.318;2023-06-14T01:08:58;6.80;;;6.20;;
3916;SDS011;1973;50.518;7.318;2023-06-14T01:11:36;8.53;;;7.07;;
3916;SDS011;1973;50.518;7.318;2023-06-14T01:14:11;14.13;;;7.20;;
3916;SDS011;1973;50.518;7.318;2023-06-14T01:16:40;8.03;;;7.23;;
3916;SDS011;1973;50.518;7.318;2023-06-14T01:21:48;6.33;;;5.73;;
3916;SDS011;1973;50.518;7.318;2023-06-14T01:24:17;7.60;;;6.90;;
3916;SDS011;1973;50.518;7.318;2023-06-14T01:26:46;7.30;;;6.60;;
3916;SDS011;1973;50.518;7.318;2023-06-14T01:29:17;6.90;;;6.30;;
3916;SDS011;1973;50.518;7.318;2023-06-14T01:31:45;8.30;;;6.80;;
3916;SDS011;1973;50.518;7.318;2023-06-14T01:34:12;7.10;;;6.30;;
3916;SDS011;1973;50.518;7.318;2023-06-14T01:36:40;6.93;;;6.33;;
3916;SDS011;1973;50.518;7.318;2023-06-14T01:39:07;7.60;;;6.80;;
3916;SDS011;1973;50.518;7.318;2023-06-14T01:41:36;7.93;;;6.60;;
3916;SDS011;1973;50.518;7.318;2023-06-14T01:44:03;6.87;;;6.00;;
3916;SDS011;1973;50.518;7.318;2023-06-14T01:46:31;7.30;;;6.60;;
3916;SDS011;1973;50.518;7.318;2023-06-14T01:48:58;7.80;;;6.63;;
3916;SDS011;1973;50.518;7.318;2023-06-14T01:51:25;6.97;;;6.27;;
3916;SDS011;1973;50.518;7.318;2023-06-14T01:53:51;8.10;;;6.87;;
3916;SDS011;1973;50.518;7.318;2023-06-14T01:56:18;7.73;;;6.20;;
3916;SDS011;1973;50.518;7.318;2023-06-14T01:58:46;7.87;;;7.13;;
3916;SDS011;1973;50.518;7.318;2023-06-14T02:01:12;7.30;;;6.60;;
3916;SDS011;1973;50.518;7.318;2023-06-14T02:03:42;7.93;;;7.10;;
3916;SDS011;1973;50.518;7.318;2023-06-14T02:06:11;7.60;;;6.90;;
3916;SDS011;1973;50.518;7.318;2023-06-14T02:08:38;6.73;;;6.10;;
3916;SDS011;1973;50.518;7.318;2023-06-14T02:11:05;7.40;;;6.70;;
3916;SDS011;1973;50.518;7.318;2023-06-14T02:13:31;7.50;;;6.13;;
3916;SDS011;1973;50.518;7.318;2023-06-14T02:15:58;6.87;;;6.27;;
3916;SDS011;1973;50.518;7.318;2023-06-14T02:18:26;6.77;;;6.10;;
3916;SDS011;1973;50.518;7.318;2023-06-14T02:20:52;8.70;;;6.43;;
3916;SDS011;1973;50.518;7.318;2023-06-14T02:23:19;7.63;;;6.93;;
3916;SDS011;1973;50.518;7.318;2023-06-14T02:25:45;8.20;;;6.80;;
3916;SDS011;1973;50.518;7.318;2023-06-14T02:28:12;7.70;;;6.90;;
3916;SDS011;1973;50.518;7.318;2023-06-14T02:30:39;7.43;;;6.73;;
3916;SDS011;1973;50.518;7.318;2023-06-14T02:33:07;9.10;;;6.57;;
3916;SDS011;1973;50.518;7.318;2023-06-14T02:35:33;9.30;;;7.17;;
3916;SDS011;1973;50.518;7.318;2023-06-14T02:38:00;6.50;;;5.60;;
3916;SDS011;1973;50.518;7.318;2023-06-14T02:40:26;7.30;;;6.70;;
3916;SDS011;1973;50.518;7.318;2023-06-14T02:42:53;7.60;;;6.90;;
3916;SDS011;1973;50.518;7.318;2023-06-14T02:45:20;8.17;;;7.10;;
3916;SDS011;1973;50.518;7.318;2023-06-14T02:47:47;7.37;;;6.67;;
3916;SDS011;1973;50.518;7.318;2023-06-14T02:50:14;6.73;;;6.13;;
3916;SDS011;1973;50.518;7.318;2023-06-14T02:52:41;7.03;;;6.40;;
3916;SDS011;1973;50.518;7.318;2023-06-14T02:55:10;6.63;;;6.03;;
3916;SDS011;1973;50.518;7.318;2023-06-14T02:57:37;7.00;;;6.30;;
3916;SDS011;1973;50.518;7.318;2023-06-14T03:00:04;6.50;;;5.90;;
3916;SDS011;1973;50.518;7.318;2023-06-14T03:02:31;7.40;;;6.50;;
3916;SDS011;1973;50.518;7.318;2023-06-14T03:04:58;7.30;;;6.60;;
3916;SDS011;1973;50.518;7.318;2023-06-14T03:07:27;6.97;;;6.27;;
3916;SDS011;1973;50.518;7.318;2023-06-14T03:09:55;7.63;;;6.83;;
3916;SDS011;1973;50.518;7.318;2023-06-14T03:12:22;10.67;;;7.30;;
3916;SDS011;1973;50.518;7.318;2023-06-14T03:14:49;7.50;;;6.30;;
3916;SDS011;1973;50.518;7.318;2023-06-14T03:17:17;7.63;;;6.83;;
3916;SDS011;1973;50.518;7.318;2023-06-14T03:19:45;9.20;;;7.10;;
3916;SDS011;1973;50.518;7.318;2023-06-14T03:22:12;7.47;;;6.77;;
3916;SDS011;1973;50.518;7.318;2023-06-14T03:24:38;7.70;;;6.17;;
3916;SDS011;1973;50.518;7.318;2023-06-14T03:27:05;6.90;;;6.20;;
3916;SDS011;1973;50.518;7.318;2023-06-14T03:29:32;9.90;;;6.80;;
3916;SDS011;1973;50.518;7.318;2023-06-14T03:31:59;7.47;;;6.00;;
3916;SDS011;1973;50.518;7.318;2023-06-14T03:34:27;9.73;;;6.80;;
3916;SDS011;1973;50.518;7.318;2023-06-14T03:36:53;12.43;;;6.20;;
3916;SDS011;1973;50.518;7.318;2023-06-14T03:39:20;7.43;;;6.53;;
3916;SDS011;1973;50.518;7.318;2023-06-14T03:41:47;10.50;;;6.50;;
3916;SDS011;1973;50.518;7.318;2023-06-14T03:44:17;6.73;;;6.03;;
3916;SDS011;1973;50.518;7.318;2023-06-14T03:46:45;7.83;;;6.83;;
3916;SDS011;1973;50.518;7.318;2023-06-14T03:49:12;9.23;;;6.80;;
3916;SDS011;1973;50.518;7.318;2023-06-14T03:51:39;8.50;;;6.73;;
3916;SDS011;1973;50.518;7.318;2023-06-14T03:54:06;7.00;;;6.30;;
3916;SDS011;1973;50.518;7.318;2023-06-14T03:56:53;7.80;;;6.83;;
3916;SDS011;1973;50.518;7.318;2023-06-14T03:59:19;7.30;;;5.40;;
3916;SDS011;1973;50.518;7.318;2023-06-14T04:01:46;6.53;;;5.90;;
3916;SDS011;1973;50.518;7.318;2023-06-14T04:04:13;7.60;;;6.33;;
3916;SDS011;1973;50.518;7.318;2023-06-14T04:06:39;6.73;;;6.13;;
3916;SDS011;1973;50.518;7.318;2023-06-14T04:09:07;6.40;;;5.80;;
3916;SDS011;1973;50.518;7.318;2023-06-14T04:11:33;8.63;;;6.50;;
3916;SDS011;1973;50.518;7.318;2023-06-14T04:14:01;7.30;;;6.60;;
3916;SDS011;1973;50.518;7.318;2023-06-14T04:16:28;6.87;;;5.97;;
3916;SDS011;1973;50.518;7.318;2023-06-14T04:18:55;6.10;;;5.60;;
3916;SDS011;1973;50.518;7.318;2023-06-14T04:21:24;6.70;;;6.10;;
3916;SDS011;1973;50.518;7.318;2023-06-14T04:23:52;5.63;;;5.13;;
3916;SDS011;1973;50.518;7.318;2023-06-14T04:26:20;6.90;;;6.20;;
3916;SDS011;1973;50.518;7.318;2023-06-14T04:28:52;11.77;;;5.87;;
3916;SDS011;1973;50.518;7.318;2023-06-14T04:31:19;6.27;;;5.67;;
3916;SDS011;1973;50.518;7.318;2023-06-14T04:33:47;6.47;;;5.87;;
3916;SDS011;1973;50.518;7.318;2023-06-14T04:36:15;7.53;;;6.57;;
3916;SDS011;1973;50.518;7.318;2023-06-14T04:38:44;7.47;;;6.07;;
3916;SDS011;1973;50.518;7.318;2023-06-14T04:41:12;7.33;;;6.63;;
3916;SDS011;1973;50.518;7.318;2023-06-14T04:43:38;6.80;;;6.10;;
3916;SDS011;1973;50.518;7.318;2023-06-14T04:46:05;6.93;;;5.23;;
3916;SDS011;1973;50.518;7.318;2023-06-14T04:48:37;9.30;;;6.17;;
3916;SDS011;1973;50.518;7.318;2023-06-14T04:51:07;10.70;;;5.83;;
3916;SDS011;1973;50.518;7.318;2023-06-14T04:53:35;7.00;;;5.80;;
3916;SDS011;1973;50.518;7.318;2023-06-14T04:56:01;6.30;;;5.70;;
3916;SDS011;1973;50.518;7.318;2023-06-14T04:58:29;7.40;;;6.70;;
3916;SDS011;1973;50.518;7.318;2023-06-14T05:00:55;8.87;;;6.47;;
3916;SDS011;1973;50.518;7.318;2023-06-14T05:03:22;6.47;;;5.80;;
3916;SDS011;1973;50.518;7.318;2023-06-14T05:05:50;7.23;;;6.47;;
3916;SDS011;1973;50.518;7.318;2023-06-14T05:08:20;8.00;;;6.47;;
3916;SDS011;1973;50.518;7.318;2023-06-14T05:10:49;6.97;;;6.27;;
3916;SDS011;1973;50.518;7.318;2023-06-14T05:13:16;6.93;;;6.30;;
3916;SDS011;1973;50.518;7.318;2023-06-14T05:15:43;7.30;;;6.60;;
3916;SDS011;1973;50.518;7.318;2023-06-14T05:18:10;7.13;;;6.07;;
3916;SDS011;1973;50.518;7.318;2023-06-14T05:20:37;6.53;;;5.53;;
3916;SDS011;1973;50.518;7.318;2023-06-14T05:23:03;6.90;;;6.13;;
3916;SDS011;1973;50.518;7.318;2023-06-14T05:25:32;6.20;;;5.60;;
3916;SDS011;1973;50.518;7.318;2023-06-14T05:28:00;6.90;;;6.20;;
3916;SDS011;1973;50.518;7.318;2023-06-14T05:30:30;6.63;;;6.00;;
3916;SDS011;1973;50.518;7.318;2023-06-14T05:32:57;8.10;;;5.60;;
3916;SDS011;1973;50.518;7.318;2023-06-14T05:35:24;6.83;;;6.10;;
3916;SDS011;1973;50.518;7.318;2023-06-14T05:37:53;6.97;;;6.27;;
3916;SDS011;1973;50.518;7.318;2023-06-14T05:40:20;7.33;;;6.63;;
3916;SDS011;1973;50.518;7.318;2023-06-14T05:42:47;6.70;;;6.03;;
3916;SDS011;1973;50.518;7.318;2023-06-14T05:45:14;7.57;;;6.30;;
3916;SDS011;1973;50.518;7.318;2023-06-14T05:47:42;7.63;;;6.83;;
3916;SDS011;1973;50.518;7.318;2023-06-14T05:50:09;9.00;;;6.90;;
3916;SDS011;1973;50.518;7.318;2023-06-14T05:52:36;7.80;;;6.07;;
3916;SDS011;1973;50.518;7.318;2023-06-14T05:55:03;8.00;;;7.20;;
3916;SDS011;1973;50.518;7.318;2023-06-14T05:57:30;7.87;;;6.53;;
3916;SDS011;1973;50.518;7.318;2023-06-14T05:59:57;7.67;;;6.87;;
3916;SDS011;1973;50.518;7.318;2023-06-14T06:02:23;7.63;;;6.83;;
3916;SDS011;1973;50.518;7.318;2023-06-14T06:04:50;6.93;;;6.33;;
3916;SDS011;1973;50.518;7.318;2023-06-14T06:07:17;7.50;;;6.80;;
3916;SDS011;1973;50.518;7.318;2023-06-14T06:09:43;8.90;;;6.60;;
3916;SDS011;1973;50.518;7.318;2023-06-14T06:12:10;8.03;;;6.60;;
3916;SDS011;1973;50.518;7.318;2023-06-14T06:14:36;7.73;;;6.93;;
3916;SDS011;1973;50.518;7.318;2023-06-14T06:17:03;7.70;;;7.00;;
3916;SDS011;1973;50.518;7.318;2023-06-14T06:19:30;7.80;;;7.00;;
3916;SDS011;1973;50.518;7.318;2023-06-14T06:21:56;9.03;;;6.57;;
3916;SDS011;1973;50.518;7.318;2023-06-14T06:24:23;7.63;;;6.83;;
3916;SDS011;1973;50.518;7.318;2023-06-14T06:26:49;8.40;;;6.33;;
3916;SDS011;1973;50.518;7.318;2023-06-14T06:29:16;6.83;;;6.23;;
3916;SDS011;1973;50.518;7.318;2023-06-14T06:31:42;8.27;;;7.47;;
3916;SDS011;1973;50.518;7.318;2023-06-14T06:34:09;8.00;;;6.47;;
3916;SDS011;1973;50.518;7.318;2023-06-14T06:36:35;7.50;;;6.80;;
3916;SDS011;1973;50.518;7.318;2023-06-14T06:39:03;7.97;;;6.77;;
3916;SDS011;1973;50.518;7.318;2023-06-14T06:41:37;7.20;;;6.50;;
3916;SDS011;1973;50.518;7.318;2023-06-14T06:44:06;9.73;;;6.43;;
3916;SDS011;1973;50.518;7.318;2023-06-14T06:46:33;8.80;;;6.30;;
3916;SDS011;1973;50.518;7.318;2023-06-14T06:49:01;9.13;;;6.07;;
3916;SDS011;1973;50.518;7.318;2023-06-14T06:51:27;7.33;;;5.50;;
3916;SDS011;1973;50.518;7.318;2023-06-14T06:53:54;7.10;;;6.00;;
3916;SDS011;1973;50.518;7.318;2023-06-14T06:56:21;6.83;;;5.90;;
3916;SDS011;1973;50.518;7.318;2023-06-14T06:58:49;11.97;;;6.47;;
3916;SDS011;1973;50.518;7.318;2023-06-14T07:01:16;10.30;;;5.77;;
3916;SDS011;1973;50.518;7.318;2023-06-14T07:03:45;6.47;;;5.87;;
3916;SDS011;1973;50.518;7.318;2023-06-14T07:06:12;12.37;;;6.07;;
3916;SDS011;1973;50.518;7.318;2023-06-14T07:08:38;10.80;;;5.93;;
3916;SDS011;1973;50.518;7.318;2023-06-14T07:11:05;7.63;;;6.23;;
3916;SDS011;1973;50.518;7.318;2023-06-14T07:13:31;6.93;;;6.23;;
3916;SDS011;1973;50.518;7.318;2023-06-14T07:15:58;5.90;;;5.00;;
3916;SDS011;1973;50.518;7.318;2023-06-14T07:18:27;15.03;;;5.97;;
3916;SDS011;1973;50.518;7.318;2023-06-14T07:20:53;5.50;;;5.00;;
3916;SDS011;1973;50.518;7.318;2023-06-14T07:23:20;7.73;;;4.77;;
3916;SDS011;1973;50.518;7.318;2023-06-14T07:25:47;5.60;;;4.97;;
3916;SDS011;1973;50.518;7.318;2023-06-14T07:28:13;5.43;;;4.50;;
3916;SDS011;1973;50.518;7.318;2023-06-14T07:30:40;7.23;;;4.40;;
3916;SDS011;1973;50.518;7.318;2023-06-14T07:33:06;6.53;;;4.90;;
3916;SDS011;1973;50.518;7.318;2023-06-14T07:35:34;5.23;;;4.33;;
3916;SDS011;1973;50.518;7.318;2023-06-14T07:38:01;4.33;;;3.77;;
3916;SDS011;1973;50.518;7.318;2023-06-14T07:40:27;4.60;;;4.20;;
3916;SDS011;1973;50.518;7.318;2023-06-14T07:42:54;8.53;;;4.20;;
3916;SDS011;1973;50.518;7.318;2023-06-14T07:45:21;4.30;;;3.73;;
3916;SDS011;1973;50.518;7.318;2023-06-14T07:47:47;5.10;;;4.07;;
3916;SDS011;1973;50.518;7.318;2023-06-14T07:50:14;7.27;;;3.80;;
3916;SDS011;1973;50.518;7.318;2023-06-14T07:52:41;4.10;;;3.70;;
3916;SDS011;1973;50.518;7.318;2023-06-14T07:55:07;4.93;;;3.73;;
3916;SDS011;1973;50.518;7.318;2023-06-14T07:57:34;7.70;;;3.53;;
3916;SDS011;1973;50.518;7.318;2023-06-14T08:00:01;6.00;;;3.40;;
3916;SDS011;1973;50.518;7.318;2023-06-14T08:02:28;4.57;;;3.47;;
3916;SDS011;1973;50.518;7.318;2023-06-14T08:04:55;7.33;;;4.00;;
3916;SDS011;1973;50.518;7.318;2023-06-14T08:07:22;4.03;;;3.60;;
3916;SDS011;1973;50.518;7.318;2023-06-14T08:09:48;4.00;;;3.20;;
3916;SDS011;1973;50.518;7.318;2023-06-14T08:12:15;5.90;;;3.10;;
3916;SDS011;1973;50.518;7.318;2023-06-14T08:14:42;4.40;;;3.23;;
3916;SDS011;1973;50.518;7.318;2023-06-14T08:17:08;4.80;;;3.27;;
3916;SDS011;1973;50.518;7.318;2023-06-14T08:19:35;3.47;;;2.90;;
3916;SDS011;1973;50.518;7.318;2023-06-14T08:22:01;4.00;;;2.90;;
3916;SDS011;1973;50.518;7.318;2023-06-14T08:24:29;4.10;;;3.23;;
3916;SDS011;1973;50.518;7.318;2023-06-14T08:26:56;7.93;;;3.17;;
3916;SDS011;1973;50.518;7.318;2023-06-14T08:29:24;4.03;;;3.37;;
3916;SDS011;1973;50.518;7.318;2023-06-14T08:31:50;3.83;;;2.90;;
3916;SDS011;1973;50.518;7.318;2023-06-14T08:34:17;3.40;;;3.10;;
3916;SDS011;1973;50.518;7.318;2023-06-14T08:36:43;3.20;;;2.70;;
3916;SDS011;1973;50.518;7.318;2023-06-14T08:39:10;5.00;;;3.03;;
3916;SDS011;1973;50.518;7.318;2023-06-14T08:41:36;5.13;;;2.60;;
3916;SDS011;1973;50.518;7.318;2023-06-14T08:44:03;3.13;;;2.83;;
3916;SDS011;1973;50.518;7.318;2023-06-14T08:46:32;3.17;;;2.63;;
3916;SDS011;1973;50.518;7.318;2023-06-14T08:49:00;4.10;;;2.90;;
3916;SDS011;1973;50.518;7.318;2023-06-14T08:51:28;7.00;;;2.90;;
3916;SDS011;1973;50.518;7.318;2023-06-14T08:54:00;3.93;;;2.87;;
3916;SDS011;1973;50.518;7.318;2023-06-14T08:56:28;2.63;;;2.40;;
3916;SDS011;1973;50.518;7.318;2023-06-14T08:58:56;3.50;;;2.57;;
3916;SDS011;1973;50.518;7.318;2023-06-14T09:01:33;2.60;;;2.30;;
3916;SDS011;1973;50.518;7.318;2023-06-14T09:04:01;6.00;;;2.60;;
3916;SDS011;1973;50.518;7.318;2023-06-14T09:06:28;2.83;;;2.57;;
3916;SDS011;1973;50.518;7.318;2023-06-14T09:08:56;2.40;;;2.20;;
3916;SDS011;1973;50.518;7.318;2023-06-14T09:11:23;3.80;;;2.80;;
3916;SDS011;1973;50.518;7.318;2023-06-14T09:13:51;4.00;;;2.20;;
3916;SDS011;1973;50.518;7.318;2023-06-14T09:16:18;2.70;;;2.10;;
3916;SDS011;1973;50.518;7.318;2023-06-14T09:18:45;3.63;;;2.23;;
3916;SDS011;1973;50.518;7.318;2023-06-14T09:21:16;2.80;;;2.27;;
3916;SDS011;1973;50.518;7.318;2023-06-14T09:23:44;2.67;;;2.40;;
3916;SDS011;1973;50.518;7.318;2023-06-14T09:26:16;3.50;;;2.40;;
3916;SDS011;1973;50.518;7.318;2023-06-14T09:28:46;3.20;;;2.70;;
3916;SDS011;1973;50.518;7.318;2023-06-14T09:31:15;3.10;;;2.27;;
3916;SDS011;1973;50.518;7.318;2023-06-14T09:33:43;4.60;;;2.43;;
3916;SDS011;1973;50.518;7.318;2023-06-14T09:36:17;3.33;;;2.33;;
3916;SDS011;1973;50.518;7.318;2023-06-14T09:39:01;3.93;;;2.33;;
3916;SDS011;1973;50.518;7.318;2023-06-14T09:41:38;3.43;;;2.50;;
3916;SDS011;1973;50.518;7.318;2023-06-14T09:44:07;4.07;;;2.80;;
3916;SDS011;1973;50.518;7.318;2023-06-14T09:46:41;2.63;;;2.23;;
3916;SDS011;1973;50.518;7.318;2023-06-14T09:49:08;3.97;;;2.43;;
3916;SDS011;1973;50.518;7.318;2023-06-14T09:51:36;5.10;;;2.33;;
3916;SDS011;1973;50.518;7.318;2023-06-14T09:54:11;2.40;;;2.20;;
3916;SDS011;1973;50.518;7.318;2023-06-14T09:56:44;2.60;;;2.40;;
3916;SDS011;1973;50.518;7.318;2023-06-14T09:59:13;4.43;;;2.90;;
3916;SDS011;1973;50.518;7.318;2023-06-14T10:01:44;3.43;;;2.90;;
3916;SDS011;1973;50.518;7.318;2023-06-14T10:04:12;3.03;;;2.40;;
3916;SDS011;1973;50.518;7.318;2023-06-14T10:06:43;2.57;;;2.37;;
3916;SDS011;1973;50.518;7.318;2023-06-14T10:09:12;3.33;;;3.03;;
3916;SDS011;1973;50.518;7.318;2023-06-14T10:11:40;2.83;;;2.40;;
3916;SDS011;1973;50.518;7.318;2023-06-14T10:14:11;3.20;;;2.60;;
3916;SDS011;1973;50.518;7.318;2023-06-14T10:16:41;2.70;;;2.50;;
3916;SDS011;1973;50.518;7.318;2023-06-14T10:19:22;3.93;;;2.00;;
3916;SDS011;1973;50.518;7.318;2023-06-14T10:21:57;2.90;;;2.60;;
3916;SDS011;1973;50.518;7.318;2023-06-14T10:24:30;3.23;;;2.43;;
3916;SDS011;1973;50.518;7.318;2023-06-14T10:27:06;5.40;;;2.60;;
3916;SDS011;1973;50.518;7.318;2023-06-14T10:32:25;4.97;;;2.60;;
3916;SDS011;1973;50.518;7.318;2023-06-14T10:37:25;3.10;;;2.80;;
3916;SDS011;1973;50.518;7.318;2023-06-14T10:39:52;3.90;;;2.37;;
3916;SDS011;1973;50.518;7.318;2023-06-14T10:42:19;4.10;;;2.60;;
3916;SDS011;1973;50.518;7.318;2023-06-14T10:45:04;3.27;;;2.00;;
3916;SDS011;1973;50.518;7.318;2023-06-14T10:47:32;3.40;;;2.33;;
3916;SDS011;1973;50.518;7.318;2023-06-14T10:52:28;5.20;;;2.70;;
3916;SDS011;1973;50.518;7.318;2023-06-14T10:54:56;2.90;;;2.40;;
3916;SDS011;1973;50.518;7.318;2023-06-14T10:57:36;2.90;;;2.50;;
3916;SDS011;1973;50.518;7.318;2023-06-14T11:00:21;2.70;;;2.23;;
3916;SDS011;1973;50.518;7.318;2023-06-14T11:03:04;2.90;;;2.13;;
3916;SDS011;1973;50.518;7.318;2023-06-14T11:05:57;2.50;;;1.90;;
3916;SDS011;1973;50.518;7.318;2023-06-14T11:11:00;2.53;;;2.20;;
3916;SDS011;1973;50.518;7.318;2023-06-14T11:13:31;4.37;;;2.17;;
3916;SDS011;1973;50.518;7.318;2023-06-14T11:15:58;2.37;;;1.80;;
3916;SDS011;1973;50.518;7.318;2023-06-14T11:18:25;2.43;;;1.87;;
3916;SDS011;1973;50.518;7.318;2023-06-14T11:20:53;2.90;;;2.07;;
3916;SDS011;1973;50.518;7.318;2023-06-14T11:23:21;2.20;;;2.00;;
3916;SDS011;1973;50.518;7.318;2023-06-14T11:25:52;2.00;;;1.70;;
3916;SDS011;1973;50.518;7.318;2023-06-14T11:28:18;2.30;;;1.90;;
3916;SDS011;1973;50.518;7.318;2023-06-14T11:31:11;2.43;;;2.10;;
3916;SDS011;1973;50.518;7.318;2023-06-14T11:33:36;2.73;;;1.80;;
3916;SDS011;1973;50.518;7.318;2023-06-14T11:36:03;4.23;;;3.00;;
3916;SDS011;1973;50.518;7.318;2023-06-14T11:38:37;2.93;;;2.37;;
3916;SDS011;1973;50.518;7.318;2023-06-14T11:41:03;3.23;;;2.30;;
3916;SDS011;1973;50.518;7.318;2023-06-14T11:43:30;2.87;;;1.63;;
3916;SDS011;1973;50.518;7.318;2023-06-14T11:45:59;2.57;;;2.07;;
3916;SDS011;1973;50.518;7.318;2023-06-14T11:48:37;1.93;;;1.70;;
3916;SDS011;1973;50.518;7.318;2023-06-14T11:51:05;1.90;;;1.70;;
3916;SDS011;1973;50.518;7.318;2023-06-14T11:53:31;3.50;;;1.90;;
3916;SDS011;1973;50.518;7.318;2023-06-14T11:55:58;2.57;;;2.30;;
3916;SDS011;1973;50.518;7.318;2023-06-14T11:58:26;2.17;;;1.90;;
3916;SDS011;1973;50.518;7.318;2023-06-14T12:00:53;2.43;;;1.73;;
3916;SDS011;1973;50.518;7.318;2023-06-14T12:03:24;3.80;;;2.03;;
3916;SDS011;1973;50.518;7.318;2023-06-14T12:06:01;2.33;;;1.80;;
3916;SDS011;1973;50.518;7.318;2023-06-14T12:08:32;1.80;;;1.67;;
3916;SDS011;1973;50.518;7.318;2023-06-14T12:11:10;1.83;;;1.63;;
3916;SDS011;1973;50.518;7.318;2023-06-14T12:13:40;2.00;;;1.80;;
3916;SDS011;1973;50.518;7.318;2023-06-14T12:16:08;2.07;;;1.87;;
3916;SDS011;1973;50.518;7.318;2023-06-14T12:18:36;1.50;;;1.40;;
3916;SDS011;1973;50.518;7.318;2023-06-14T12:21:04;2.53;;;2.10;;
3916;SDS011;1973;50.518;7.318;2023-06-14T12:23:48;3.20;;;1.70;;
3916;SDS011;1973;50.518;7.318;2023-06-14T12:26:19;2.03;;;1.60;;
3916;SDS011;1973;50.518;7.318;2023-06-14T12:28:46;2.10;;;1.90;;
3916;SDS011;1973;50.518;7.318;2023-06-14T12:31:14;2.40;;;1.57;;
3916;SDS011;1973;50.518;7.318;2023-06-14T12:33:42;3.10;;;1.60;;
3916;SDS011;1973;50.518;7.318;2023-06-14T12:36:09;3.07;;;2.07;;
3916;SDS011;1973;50.518;7.318;2023-06-14T12:38:37;2.03;;;1.83;;
3916;SDS011;1973;50.518;7.318;2023-06-14T12:41:03;2.50;;;2.10;;
3916;SDS011;1973;50.518;7.318;2023-06-14T12:43:30;1.70;;;1.50;;
3916;SDS011;1973;50.518;7.318;2023-06-14T12:45:57;2.20;;;1.90;;
3916;SDS011;1973;50.518;7.318;2023-06-14T12:48:23;2.00;;;1.87;;
3916;SDS011;1973;50.518;7.318;2023-06-14T12:50:50;2.53;;;1.93;;
3916;SDS011;1973;50.518;7.318;2023-06-14T12:53:16;3.27;;;2.43;;
3916;SDS011;1973;50.518;7.318;2023-06-14T12:55:43;2.33;;;1.90;;
3916;SDS011;1973;50.518;7.318;2023-06-14T12:58:10;2.60;;;2.40;;
3916;SDS011;1973;50.518;7.318;2023-06-14T13:00:39;3.00;;;2.40;;
3916;SDS011;1973;50.518;7.318;2023-06-14T13:03:05;4.33;;;2.80;;
3916;SDS011;1973;50.518;7.318;2023-06-14T13:05:32;5.07;;;2.60;;
3916;SDS011;1973;50.518;7.318;2023-06-14T13:08:00;3.10;;;2.67;;
3916;SDS011;1973;50.518;7.318;2023-06-14T13:10:26;3.20;;;2.17;;
3916;SDS011;1973;50.518;7.318;2023-06-14T13:12:54;3.80;;;2.77;;
3916;SDS011;1973;50.518;7.318;2023-06-14T13:15:21;3.33;;;2.80;;
3916;SDS011;1973;50.518;7.318;2023-06-14T13:17:47;2.73;;;2.30;;
3916;SDS011;1973;50.518;7.318;2023-06-14T13:20:15;3.57;;;2.60;;
3916;SDS011;1973;50.518;7.318;2023-06-14T13:22:46;2.63;;;2.43;;
3916;SDS011;1973;50.518;7.318;2023-06-14T13:25:12;2.60;;;2.40;;
3916;SDS011;1973;50.518;7.318;2023-06-14T13:27:39;3.60;;;2.47;;
3916;SDS011;1973;50.518;7.318;2023-06-14T13:30:06;2.50;;;2.30;;
3916;SDS011;1973;50.518;7.318;2023-06-14T13:32:33;2.80;;;2.30;;
3916;SDS011;1973;50.518;7.318;2023-06-14T13:35:00;3.60;;;2.40;;
3916;SDS011;1973;50.518;7.318;2023-06-14T13:37:27;2.80;;;2.37;;
3916;SDS011;1973;50.518;7.318;2023-06-14T13:39:53;3.07;;;2.33;;
3916;SDS011;1973;50.518;7.318;2023-06-14T13:42:20;3.33;;;2.53;;
3916;SDS011;1973;50.518;7.318;2023-06-14T13:44:47;2.50;;;2.30;;
3916;SDS011;1973;50.518;7.318;2023-06-14T13:47:13;5.07;;;2.37;;
3916;SDS011;1973;50.518;7.318;2023-06-14T13:49:40;2.87;;;2.53;;
3916;SDS011;1973;50.518;7.318;2023-06-14T13:52:07;3.40;;;2.40;;
3916;SDS011;1973;50.518;7.318;2023-06-14T13:54:33;5.63;;;2.53;;
3916;SDS011;1973;50.518;7.318;2023-06-14T13:57:00;2.30;;;2.10;;
3916;SDS011;1973;50.518;7.318;2023-06-14T13:59:26;3.27;;;2.50;;
3916;SDS011;1973;50.518;7.318;2023-06-14T14:01:54;3.10;;;2.43;;
3916;SDS011;1973;50.518;7.318;2023-06-14T14:04:21;5.20;;;2.30;;
3916;SDS011;1973;50.518;7.318;2023-06-14T14:06:47;2.43;;;2.23;;
3916;SDS011;1973;50.518;7.318;2023-06-14T14:09:14;2.00;;;1.80;;
3916;SDS011;1973;50.518;7.318;2023-06-14T14:11:41;3.03;;;2.20;;
3916;SDS011;1973;50.518;7.318;2023-06-14T14:14:08;2.70;;;1.80;;
3916;SDS011;1973;50.518;7.318;2023-06-14T14:16:36;2.53;;;2.30;;
3916;SDS011;1973;50.518;7.318;2023-06-14T14:19:03;8.77;;;2.90;;
3916;SDS011;1973;50.518;7.318;2023-06-14T14:21:30;3.50;;;2.30;;
3916;SDS011;1973;50.518;7.318;2023-06-14T14:23:57;2.53;;;2.20;;
3916;SDS011;1973;50.518;7.318;2023-06-14T14:26:24;3.20;;;2.50;;
3916;SDS011;1973;50.518;7.318;2023-06-14T14:28:51;2.73;;;2.53;;
3916;SDS011;1973;50.518;7.318;2023-06-14T14:31:18;2.43;;;2.00;;
3916;SDS011;1973;50.518;7.318;2023-06-14T14:33:45;3.00;;;2.30;;
3916;SDS011;1973;50.518;7.318;2023-06-14T14:36:11;2.97;;;2.40;;
3916;SDS011;1973;50.518;7.318;2023-06-14T14:38:38;2.30;;;2.10;;
3916;SDS011;1973;50.518;7.318;2023-06-14T14:41:04;3.13;;;2.30;;
3916;SDS011;1973;50.518;7.318;2023-06-14T14:43:31;2.80;;;2.50;;
3916;SDS011;1973;50.518;7.318;2023-06-14T14:45:58;3.73;;;2.30;;
3916;SDS011;1973;50.518;7.318;2023-06-14T14:48:26;3.53;;;3.20;;
3916;SDS011;1973;50.518;7.318;2023-06-14T14:50:52;5.40;;;2.80;;
3916;SDS011;1973;50.518;7.318;2023-06-14T14:53:18;3.03;;;2.27;;
3916;SDS011;1973;50.518;7.318;2023-06-14T14:55:45;2.83;;;2.47;;
3916;SDS011;1973;50.518;7.318;2023-06-14T14:58:13;2.53;;;2.30;;
3916;SDS011;1973;50.518;7.318;2023-06-14T15:00:45;3.17;;;2.20;;
3916;SDS011;1973;50.518;7.318;2023-06-14T15:03:13;2.93;;;2.33;;
3916;SDS011;1973;50.518;7.318;2023-06-14T15:05:40;3.30;;;2.27;;
3916;SDS011;1973;50.518;7.318;2023-06-14T15:08:07;4.57;;;2.30;;
3916;SDS011;1973;50.518;7.318;2023-06-14T15:10:38;2.53;;;2.33;;
3916;SDS011;1973;50.518;7.318;2023-06-14T15:13:07;2.80;;;2.40;;
3916;SDS011;1973;50.518;7.318;2023-06-14T15:15:34;2.80;;;2.50;;
3916;SDS011;1973;50.518;7.318;2023-06-14T15:18:01;2.33;;;1.90;;
3916;SDS011;1973;50.518;7.318;2023-06-14T15:20:29;3.13;;;2.30;;
3916;SDS011;1973;50.518;7.318;2023-06-14T15:22:56;2.83;;;2.53;;
3916;SDS011;1973;50.518;7.318;2023-06-14T15:25:29;3.13;;;2.27;;
3916;SDS011;1973;50.518;7.318;2023-06-14T15:27:56;3.37;;;2.40;;
3916;SDS011;1973;50.518;7.318;2023-06-14T15:30:23;3.87;;;2.50;;
3916;SDS011;1973;50.518;7.318;2023-06-14T15:32:49;4.80;;;2.87;;
3916;SDS011;1973;50.518;7.318;2023-06-14T15:35:17;2.93;;;2.60;;